Current Weather

Maya Maya

Maya Maya, Congo (Brazzaville) (FCBB)

Report from: Sunday, December 4, 2022 11:00 AM WAT
Current time: Sunday, December 4, 2022 1:03 PM WAT

Nearby weather
Weather history
Weather forecast

Temperature26.0°C (78.8°F)
Dew point22.0°C (71.6°F)
Winds 3 kts (1.5 m/s, 3.5 mph) Vrb
Winds variableWinds variable
Visibility6.2 mi. (10 km)
Clouds Few clouds 1,400 ft. (427 m)
Ceiling: Broken clouds 2,200 ft. (671 m)
Altimeter29.91 in.Hg (1013 mB)
Relative humidity79 %
Density altitude1,635 ft. (498 m)
Remarks No significant changes expected in the next two hours
Flight conditions Marginal Visual Meteorological Conditions
Raw dataFCBB 041000Z VRB03KT 9999 FEW014 BKN022 26/22 Q1013 NOSIG
An error has occurred. This application may no longer respond until reloaded. Reload 🗙